createdAt,value
2018-05-01T00:02:17.714Z,8.80
2018-05-01T00:07:22.303Z,8.80
2018-05-01T00:12:25.374Z,8.70
2018-05-01T00:17:28.438Z,8.70
2018-05-01T00:22:31.907Z,8.70
2018-05-01T00:27:35.464Z,8.70
2018-05-01T00:32:39.742Z,8.70
2018-05-01T00:37:42.957Z,8.70
2018-05-01T00:42:47.225Z,8.70
2018-05-01T00:47:50.289Z,8.70
2018-05-01T00:52:54.134Z,8.70
2018-05-01T00:57:58.027Z,8.70
2018-05-01T01:03:01.506Z,8.60
2018-05-01T01:08:04.582Z,8.70
2018-05-01T01:13:08.051Z,8.60
2018-05-01T01:18:11.882Z,8.60
2018-05-01T01:23:15.394Z,8.60
2018-05-01T01:28:19.208Z,8.60
2018-05-01T01:33:23.417Z,8.50
2018-05-01T01:38:25.772Z,8.50
2018-05-01T01:48:33.232Z,8.40
2018-05-01T01:53:35.568Z,8.40
2018-05-01T01:58:39.394Z,8.40
2018-05-01T02:03:42.142Z,8.30
2018-05-01T02:08:45.655Z,8.40
2018-05-01T02:13:48.079Z,8.40
2018-05-01T02:18:50.385Z,8.40
2018-05-01T02:23:53.102Z,8.40
2018-05-01T02:28:56.186Z,8.40
2018-05-01T02:33:59.289Z,8.40
2018-05-01T02:39:01.891Z,8.40
2018-05-01T02:44:05.346Z,8.40
2018-05-01T02:54:11.870Z,8.40
2018-05-01T02:59:14.967Z,8.40
2018-05-01T03:04:17.299Z,8.40
2018-05-01T03:09:19.619Z,8.40
2018-05-01T03:14:22.351Z,8.40
2018-05-01T03:19:25.454Z,8.30
2018-05-01T03:24:27.845Z,8.30
2018-05-01T03:29:30.937Z,8.40
2018-05-01T03:34:33.653Z,8.40
2018-05-01T03:39:36.371Z,8.30
2018-05-01T03:44:39.469Z,8.30
2018-05-01T03:49:42.554Z,8.30
2018-05-01T03:54:44.901Z,8.20
2018-05-01T03:59:47.216Z,8.20
2018-05-01T04:04:50.668Z,8.20
2018-05-01T04:09:52.996Z,8.30
2018-05-01T04:14:56.845Z,8.20
2018-05-01T04:19:59.564Z,8.20
2018-05-01T04:25:01.882Z,8.20
2018-05-01T04:30:04.620Z,8.30
2018-05-01T04:35:07.738Z,8.10
2018-05-01T04:40:10.823Z,8.10
2018-05-01T04:45:13.148Z,8.10
2018-05-01T04:50:16.581Z,8.10
2018-05-01T04:55:18.941Z,8.10
2018-05-01T05:00:22.393Z,8.10
2018-05-01T05:05:25.484Z,8.10
2018-05-01T05:10:28.569Z,8.10
2018-05-01T05:15:32.721Z,8.20
2018-05-01T05:20:35.093Z,8.20
2018-05-01T05:25:38.176Z,8.30
2018-05-01T05:30:40.917Z,8.30
2018-05-01T05:40:47.185Z,8.30
2018-05-01T05:45:49.519Z,8.40
2018-05-01T05:50:52.406Z,8.40
2018-05-01T06:01:00.619Z,8.50
2018-05-01T06:06:02.937Z,8.60
2018-05-01T06:11:05.249Z,8.70
2018-05-01T06:16:08.341Z,8.80
2018-05-01T06:21:11.619Z,8.90
2018-05-01T06:26:13.997Z,9.00
2018-05-01T06:31:16.368Z,9.20
2018-05-01T06:36:18.645Z,9.30
2018-05-01T06:46:25.133Z,9.40
2018-05-01T06:51:28.601Z,9.40
2018-05-01T06:56:30.944Z,9.40
2018-05-01T07:06:37.200Z,9.60
2018-05-01T07:11:39.917Z,9.80
2018-05-01T07:16:43.757Z,10.00
2018-05-01T07:21:46.857Z,10.00
2018-05-01T07:26:49.182Z,10.00
2018-05-01T07:42:01.069Z,10.30
2018-05-01T07:47:03.392Z,10.40
2018-05-01T07:52:05.728Z,10.80
2018-05-01T07:57:09.572Z,11.10
2018-05-01T08:02:13.415Z,11.50
2018-05-01T08:07:19.590Z,11.80
2018-05-01T08:12:22.681Z,12.00
2018-05-01T08:17:25.785Z,12.10
2018-05-01T08:22:28.119Z,12.50
2018-05-01T08:27:30.842Z,12.90
2018-05-01T08:32:33.162Z,13.20
2018-05-01T08:42:39.426Z,13.20
2018-05-01T08:47:42.524Z,13.60
2018-05-01T08:57:48.787Z,13.90
2018-05-01T09:02:52.265Z,14.40
2018-05-01T09:07:54.611Z,15.20
2018-05-01T09:12:56.949Z,15.40
2018-05-01T09:18:00.063Z,15.70
2018-05-01T09:23:02.368Z,16.00
2018-05-01T09:28:04.705Z,15.30
2018-05-01T09:33:07.429Z,15.50
2018-05-01T09:38:09.765Z,15.70
2018-05-01T09:48:16.801Z,14.90
2018-05-01T09:53:20.336Z,14.70
2018-05-01T09:58:23.353Z,14.10
2018-05-01T10:03:27.198Z,14.30
2018-05-01T10:13:36.225Z,14.40
2018-05-01T10:18:40.444Z,14.80
2018-05-01T10:23:43.529Z,14.80
2018-05-01T10:28:46.618Z,15.10
2018-05-01T10:33:49.734Z,15.00
2018-05-01T10:43:58.821Z,13.90
2018-05-01T10:49:01.828Z,14.20
2018-05-01T10:54:05.296Z,14.20
2018-05-01T10:59:08.793Z,14.20
2018-05-01T11:04:12.670Z,14.30
2018-05-01T11:09:16.152Z,14.30
2018-05-01T11:14:19.264Z,14.10
2018-05-01T11:19:23.857Z,13.90
2018-05-01T11:24:26.950Z,13.60
2018-05-01T11:29:30.042Z,13.70
2018-05-01T11:44:42.757Z,14.60
2018-05-01T11:54:51.033Z,14.80
2018-05-01T11:59:54.137Z,14.60
2018-05-01T12:04:58.789Z,14.50
2018-05-01T12:10:01.867Z,14.50
2018-05-01T12:15:05.385Z,14.60
2018-05-01T12:20:09.320Z,14.70
2018-05-01T12:25:13.183Z,14.40
2018-05-01T12:30:16.284Z,14.40
2018-05-01T12:35:20.533Z,14.30
2018-05-01T12:40:23.632Z,14.30
2018-05-01T12:45:26.717Z,14.30
2018-05-01T12:50:29.806Z,14.20
2018-05-01T13:00:38.123Z,14.10
2018-05-01T13:05:41.966Z,14.40
2018-05-01T13:10:45.460Z,14.60
2018-05-01T13:15:49.301Z,14.70
2018-05-01T13:25:58.345Z,14.80
2018-05-01T13:31:01.441Z,14.80
2018-05-01T13:36:05.302Z,14.70
2018-05-01T13:41:09.136Z,14.60
2018-05-01T13:46:12.613Z,14.60
2018-05-01T13:51:17.201Z,14.50
2018-05-01T13:56:21.058Z,14.40
2018-05-01T14:01:24.540Z,14.50
2018-05-01T14:06:28.401Z,14.50
2018-05-01T14:11:32.618Z,14.60
2018-05-01T14:16:36.510Z,14.60
2018-05-01T14:21:39.675Z,14.80
2018-05-01T14:26:43.529Z,15.00
2018-05-01T14:36:52.540Z,14.80
2018-05-01T14:41:55.621Z,14.70
2018-05-01T14:46:58.725Z,14.80
2018-05-01T14:57:06.613Z,15.00
2018-05-01T15:02:11.648Z,14.90
2018-05-01T15:07:14.734Z,14.90
2018-05-01T15:12:18.618Z,14.90
2018-05-01T15:17:21.777Z,14.80
2018-05-01T15:22:26.064Z,14.70
2018-05-01T15:27:29.961Z,14.70
2018-05-01T15:32:33.841Z,14.60
2018-05-01T15:37:36.953Z,14.60
2018-05-01T15:42:40.045Z,14.60
2018-05-01T15:47:43.134Z,14.50
2018-05-01T15:52:47.713Z,14.50
2018-05-01T15:57:51.925Z,14.40
2018-05-01T16:02:56.144Z,14.30
2018-05-01T16:08:00.396Z,14.50
2018-05-01T16:13:04.245Z,14.80
2018-05-01T16:18:08.089Z,14.90
2018-05-01T16:23:11.569Z,15.00
2018-05-01T16:28:15.042Z,14.90
2018-05-01T16:33:19.270Z,14.50
2018-05-01T16:43:27.174Z,14.40
2018-05-01T16:53:36.188Z,14.10
2018-05-01T16:58:40.413Z,13.90
2018-05-01T17:03:44.253Z,13.90
2018-05-01T17:08:47.341Z,13.80
2018-05-01T17:13:51.353Z,13.80
2018-05-01T17:18:55.939Z,13.80
2018-05-01T17:23:59.023Z,13.80
2018-05-01T17:29:02.100Z,13.80
2018-05-01T17:34:06.327Z,13.80
2018-05-01T17:39:09.384Z,13.70
2018-05-01T17:44:12.477Z,13.70
2018-05-01T17:49:16.325Z,13.40
2018-05-01T17:54:19.833Z,13.30
2018-05-01T17:59:22.926Z,13.20
2018-05-01T18:04:26.019Z,13.00
2018-05-01T18:19:38.377Z,12.70
2018-05-01T18:24:42.605Z,12.50
2018-05-01T18:29:46.829Z,12.40
2018-05-01T18:34:51.053Z,12.10
2018-05-01T18:39:54.133Z,11.70
2018-05-01T18:44:58.004Z,11.50
2018-05-01T18:50:01.077Z,11.20
2018-05-01T18:55:04.169Z,10.70
2018-05-01T19:00:07.257Z,10.70
2018-05-01T19:05:11.838Z,10.50
2018-05-01T19:10:15.719Z,10.40
2018-05-01T19:15:19.587Z,10.20
2018-05-01T19:25:27.577Z,9.90
2018-05-01T19:30:30.666Z,9.90
2018-05-01T19:35:33.832Z,9.90
2018-05-01T19:40:37.390Z,9.70
2018-05-01T19:50:44.961Z,9.30
2018-05-01T19:55:47.987Z,9.30
2018-05-01T20:00:51.444Z,9.30
2018-05-01T20:10:59.337Z,9.20
2018-05-01T20:16:02.408Z,9.00
2018-05-01T20:26:11.428Z,9.00
2018-05-01T20:36:18.939Z,9.10
2018-05-01T20:41:23.194Z,9.20
2018-05-01T20:46:27.048Z,9.20
2018-05-01T20:56:34.563Z,9.20
2018-05-01T21:01:37.681Z,9.20
2018-05-01T21:06:41.151Z,9.20
2018-05-01T21:11:44.226Z,9.10
2018-05-01T21:16:48.100Z,9.10
2018-05-01T21:21:51.183Z,9.00
2018-05-01T21:26:54.247Z,9.00
2018-05-01T21:31:57.317Z,8.90
2018-05-01T21:37:01.157Z,8.70
2018-05-01T21:42:04.233Z,8.70
2018-05-01T21:47:08.438Z,8.50
2018-05-01T21:52:13.033Z,8.40
2018-05-01T21:57:16.214Z,8.20
2018-05-01T22:02:20.328Z,8.20
2018-05-01T22:07:24.180Z,8.00
2018-05-01T22:12:27.261Z,7.90
2018-05-01T22:22:34.741Z,7.70
2018-05-01T22:27:38.973Z,7.70
2018-05-01T22:32:43.549Z,7.60
2018-05-01T22:37:48.137Z,7.50
2018-05-01T22:42:51.945Z,7.40
2018-05-01T22:47:55.009Z,7.30
2018-05-01T22:52:58.477Z,7.20
2018-05-01T22:58:01.591Z,7.10
2018-05-01T23:03:04.678Z,7.00
2018-05-01T23:08:07.789Z,6.90
2018-05-01T23:18:15.273Z,6.80
2018-05-01T23:23:19.865Z,6.70
2018-05-01T23:28:22.953Z,6.60
2018-05-01T23:33:26.026Z,6.50
2018-05-01T23:38:29.860Z,6.40
2018-05-01T23:43:33.330Z,6.20
2018-05-01T23:48:38.680Z,6.10
2018-05-01T23:53:41.900Z,6.00
2018-05-01T23:58:45.729Z,5.90
